Time;durP1;ratioP1;P1;durP2;ratioP2;P2;SDS_P1;SDS_P2;PMS_P1;PMS_P2;Temp;Humidity;BMP_temperature;BMP_pressure;BME280_temperature;BME280_humidity;BME280_pressure;Samples;Min_cycle;Max_cycle;Signal;HPM_P1;HPM_P2
2021/07/06 00:01:34;;;;;;;2.20;1.45;;;;;;;11.40;87.87;90463.22;4963925;28;20530;-88
2021/07/06 00:04:13;;;;;;;2.72;1.73;;;;;;;11.33;87.93;90457.88;5013540;28;20392;-87
2021/07/06 00:06:48;;;;;;;3.15;1.92;;;;;;;11.27;88.93;90454.00;4964799;28;20026;-86
2021/07/06 00:09:18;;;;;;;4.47;1.88;;;;;;;11.29;88.83;90451.81;4979648;28;20030;-87
2021/07/06 00:11:53;;;;;;;2.92;2.00;;;;;;;11.31;88.95;90441.81;4959074;28;20507;-87
2021/07/06 00:14:24;;;;;;;;;;;;;;;11.27;88.90;90451.41;4966675;28;20029;-88
2021/07/06 00:17:02;;;;;;;3.70;1.92;;;;;;;11.27;89.57;90438.34;4995730;28;19909;-89
2021/07/06 00:19:36;;;;;;;5.00;1.95;;;;;;;11.29;88.58;90436.16;4996754;28;20053;-87
2021/07/06 00:22:15;;;;;;;2.88;2.17;;;;;;;11.45;88.73;90442.09;4964261;28;20029;-87
2021/07/06 00:24:56;;;;;;;2.72;1.90;;;;;;;11.43;88.74;90436.44;4982013;28;20057;-87
2021/07/06 00:27:25;;;;;;;2.97;1.73;;;;;;;11.25;88.09;90433.50;4999154;28;20542;-88
2021/07/06 00:30:02;;;;;;;3.28;2.00;;;;;;;11.26;88.50;90431.63;4978630;28;20026;-88
2021/07/06 00:32:40;;;;;;;4.30;2.03;;;;;;;11.17;87.88;90428.50;4976518;28;20041;-87
2021/07/06 00:35:18;;;;;;;5.43;1.90;;;;;;;11.15;88.24;90430.69;4976456;28;20022;-89
2021/07/06 00:37:53;;;;;;;2.28;1.67;;;;;;;11.20;88.41;90419.97;4961211;28;20060;-88
2021/07/06 00:40:31;;;;;;;3.78;2.33;;;;;;;11.06;88.51;90422.28;4960733;28;20026;-87
2021/07/06 00:43:10;;;;;;;2.90;2.00;;;;;;;11.12;88.99;90410.50;4984318;28;20037;-88
2021/07/06 00:45:48;;;;;;;2.40;1.77;;;;;;;11.11;88.34;90409.00;4980684;28;20688;-87
2021/07/06 00:48:25;;;;;;;4.38;1.92;;;;;;;11.15;88.45;90404.59;4980378;28;20073;-89
2021/07/06 00:51:04;;;;;;;4.40;2.17;;;;;;;11.17;88.30;90397.19;4979951;28;20053;-87
2021/07/06 00:53:50;;;;;;;2.88;1.80;;;;;;;11.05;88.92;90392.84;4995520;28;20407;-88
2021/07/06 00:56:27;;;;;;;2.70;1.85;;;;;;;11.00;88.61;90393.88;4996787;28;20076;-87
2021/07/06 00:59:12;;;;;;;3.15;1.98;;;;;;;10.96;88.50;90387.84;4980445;28;20018;-87
2021/07/06 01:01:44;;;;;;;3.17;1.92;;;;;;;11.05;89.81;90392.09;4994932;28;20165;-86
2021/07/06 01:04:20;;;;;;;2.60;2.00;;;;;;;11.18;89.08;90389.03;4995062;28;20029;-87
2021/07/06 01:06:55;;;;;;;2.95;2.10;;;;;;;11.07;88.84;90387.31;4979008;28;20033;-87
2021/07/06 01:09:39;;;;;;;2.17;1.75;;;;;;;10.94;88.42;90384.81;4963014;28;20026;-87
2021/07/06 01:12:18;;;;;;;3.45;1.52;;;;;;;10.84;88.43;90387.97;4995437;28;20491;-87
2021/07/06 01:14:57;;;;;;;4.05;2.13;;;;;;;10.73;88.64;90394.81;4999243;28;20584;-88
2021/07/06 01:17:34;;;;;;;2.20;1.60;;;;;;;10.72;87.95;90391.47;5015689;28;20117;-89
2021/07/06 01:20:22;;;;;;;1.80;1.30;;;;;;;10.77;87.08;90388.56;5014381;28;20479;-88
2021/07/06 01:22:55;;;;;;;2.67;1.42;;;;;;;10.68;87.16;90384.66;4999576;28;20022;-87
2021/07/06 01:25:35;;;;;;;2.85;1.67;;;;;;;10.62;87.58;90384.16;4984445;28;20026;-87
2021/07/06 01:28:12;;;;;;;2.63;1.40;;;;;;;10.58;87.82;90382.59;5008725;28;20041;-88
2021/07/06 01:30:38;;;;;;;3.10;1.88;;;;;;;10.61;89.33;90382.66;4993580;28;20510;-86
2021/07/06 01:33:18;;;;;;;3.13;1.80;;;;;;;10.60;89.03;90385.59;4978193;28;20029;-87
2021/07/06 01:35:56;;;;;;;4.97;1.90;;;;;;;10.53;88.29;90381.00;4963364;28;20030;-87
2021/07/06 01:38:34;;;;;;;4.15;1.48;;;;;;;10.48;87.15;90379.41;4962973;28;20112;-87
2021/07/06 01:41:16;;;;;;;1.50;1.30;;;;;;;10.46;87.43;90380.84;5011768;28;20080;-88
2021/07/06 01:43:58;;;;;;;4.05;1.52;;;;;;;10.43;86.80;90386.75;4994332;28;20037;-88
2021/07/06 01:46:41;;;;;;;3.78;1.38;;;;;;;10.40;87.21;90382.97;4978347;28;20480;-88
2021/07/06 01:49:23;;;;;;;4.38;1.70;;;;;;;10.34;86.64;90368.69;4980080;28;20112;-88
2021/07/06 01:52:02;;;;;;;3.10;1.45;;;;;;;10.28;86.39;90375.22;4994674;28;20032;-87
2021/07/06 01:54:34;;;;;;;4.93;1.73;;;;;;;10.31;87.57;90368.59;4979647;28;20719;-89
2021/07/06 01:57:13;;;;;;;3.90;1.50;;;;;;;10.30;87.84;90373.06;4994133;28;20030;-88
2021/07/06 01:59:48;;;;;;;3.80;1.67;;;;;;;10.33;87.81;90369.03;4978456;28;20026;-86
2021/07/06 02:02:32;;;;;;;2.50;1.50;;;;;;;10.31;88.08;90364.16;4979011;28;20399;-88
2021/07/06 02:05:26;;;;;;;4.97;1.77;;;;;;;10.33;89.31;90364.56;4977674;28;20025;-89
2021/07/06 02:08:06;;;;;;;3.08;1.55;;;;;;;10.27;88.19;90363.31;4997193;28;20022;-89
2021/07/06 02:10:44;;;;;;;2.00;1.50;;;;;;;10.37;87.65;90362.78;4962432;28;20030;-88
2021/07/06 02:13:18;;;;;;;2.67;1.58;;;;;;;10.28;87.46;90365.59;4978953;28;20025;-88
2021/07/06 02:15:49;;;;;;;;;;;;;;;10.17;86.83;90374.22;4978935;28;20026;-87
2021/07/06 02:18:32;;;;;;;2.22;1.58;;;;;;;10.12;86.59;90367.44;4993680;28;19988;-87
2021/07/06 02:21:07;;;;;;;2.00;1.42;;;;;;;10.05;86.76;90362.81;4977411;28;20022;-87
2021/07/06 02:23:47;;;;;;;2.22;1.48;;;;;;;10.01;86.22;90356.78;4978320;28;20022;-87
2021/07/06 02:26:22;;;;;;;5.68;1.58;;;;;;;9.95;87.12;90358.09;4978460;28;20029;-87
2021/07/06 02:28:56;;;;;;;2.85;1.67;;;;;;;9.99;87.89;90358.94;4977699;28;20058;-87
2021/07/06 02:31:23;;;;;;;2.92;1.83;;;;;;;10.00;88.93;90357.88;4993894;28;20113;-87
2021/07/06 02:33:54;;;;;;;5.63;1.67;;;;;;;10.09;89.83;90354.31;4956856;28;20031;-88
2021/07/06 02:36:33;;;;;;;3.22;1.85;;;;;;;10.09;89.97;90352.47;4961931;28;20033;-87
2021/07/06 02:39:29;;;;;;;2.47;1.70;;;;;;;10.13;90.17;90352.56;4980874;28;20077;-88
2021/07/06 02:42:07;;;;;;;3.50;1.95;;;;;;;10.23;91.00;90349.44;4978137;28;20030;-87
2021/07/06 02:44:44;;;;;;;2.70;1.80;;;;;;;10.21;91.57;90344.59;5012086;23;20049;-84
2021/07/06 02:47:24;;;;;;;3.55;1.90;;;;;;;10.33;91.73;90346.34;4985799;28;20488;-84
2021/07/06 02:50:01;;;;;;;5.00;1.85;;;;;;;10.42;91.64;90349.50;5002531;28;20030;-85
2021/07/06 02:52:40;;;;;;;4.40;2.00;;;;;;;10.41;91.44;90348.00;5002388;28;20494;-84
2021/07/06 02:55:20;;;;;;;2.58;1.70;;;;;;;10.23;89.38;90346.84;4999155;28;20022;-85
2021/07/06 02:57:59;;;;;;;3.13;1.70;;;;;;;10.15;88.16;90339.97;4982829;28;20026;-86
2021/07/06 03:00:35;;;;;;;5.20;1.30;;;;;;;10.10;87.61;90337.59;4967561;28;20022;-85
2021/07/06 03:03:18;;;;;;;2.08;1.40;;;;;;;10.00;86.75;90336.25;4999816;28;20026;-84
2021/07/06 03:05:56;;;;;;;2.10;1.20;;;;;;;9.94;86.37;90329.81;4999413;28;20038;-85
2021/07/06 03:08:35;;;;;;;2.50;1.10;;;;;;;9.88;86.43;90328.56;5001304;28;20488;-85
2021/07/06 03:11:17;;;;;;;2.47;1.63;;;;;;;9.79;87.44;90315.75;4982956;28;20034;-85
2021/07/06 03:13:57;;;;;;;6.30;1.40;;;;;;;9.76;87.64;90309.34;4983415;28;20030;-84
2021/07/06 03:16:30;;;;;;;2.25;1.85;;;;;;;9.97;89.03;90313.53;4998280;28;20022;-84
2021/07/06 03:19:08;;;;;;;2.10;1.70;;;;;;;9.84;90.09;90306.91;4983004;28;20022;-85
2021/07/06 03:21:53;;;;;;;2.20;1.67;;;;;;;9.88;90.11;90303.28;4998970;28;20026;-85
2021/07/06 03:24:29;;;;;;;2.50;1.65;;;;;;;9.86;89.74;90297.69;4983152;28;20026;-84
2021/07/06 03:27:06;;;;;;;3.53;1.80;;;;;;;9.91;89.36;90301.88;4984150;28;20393;-84
2021/07/06 03:29:34;;;;;;;5.05;1.83;;;;;;;9.89;89.79;90304.03;4981424;28;20511;-85
2021/07/06 03:32:16;;;;;;;4.43;1.42;;;;;;;9.96;91.08;90306.81;4967041;28;20030;-86
2021/07/06 03:34:55;;;;;;;3.72;1.90;;;;;;;10.03;90.92;90297.31;5001459;28;20535;-86
2021/07/06 03:37:37;;;;;;;2.25;1.50;;;;;;;10.06;90.89;90304.44;4984609;28;20030;-86
2021/07/06 03:40:17;;;;;;;2.40;1.60;;;;;;;10.08;90.87;90301.50;4983725;28;20026;-86
2021/07/06 03:42:44;;;;;;;3.25;1.58;;;;;;;10.05;90.03;90300.34;4984852;28;20022;-85
2021/07/06 03:45:23;;;;;;;2.60;1.50;;;;;;;9.99;88.18;90299.06;5001637;28;20031;-84
2021/07/06 03:47:49;;;;;;;3.45;1.75;;;;;;;9.96;89.26;90294.53;4967525;28;20303;-85
2021/07/06 03:50:30;;;;;;;2.55;1.80;;;;;;;10.02;90.93;90295.78;4983686;28;20023;-86
2021/07/06 03:53:07;;;;;;;3.25;1.67;;;;;;;10.17;91.57;90291.66;4983355;28;20073;-84
2021/07/06 03:55:43;;;;;;;3.78;1.58;;;;;;;10.19;91.06;90284.25;4984232;28;20053;-86
2021/07/06 03:58:21;;;;;;;2.05;1.52;;;;;;;10.24;91.20;90275.41;4984107;28;20050;-85
2021/07/06 04:00:59;;;;;;;2.58;1.88;;;;;;;10.43;91.32;90280.69;4983320;28;20030;-85
2021/07/06 04:03:43;;;;;;;3.90;1.77;;;;;;;10.41;91.28;90288.09;4983268;28;20034;-86
2021/07/06 04:06:18;;;;;;;;;;;;;;;10.48;91.39;90285.63;5000254;28;20046;-86
2021/07/06 04:08:59;;;;;;;2.40;1.30;;;;;;;10.64;90.06;90282.97;4999299;28;19916;-85
2021/07/06 04:11:39;;;;;;;1.95;1.55;;;;;;;10.60;90.36;90287.38;5000327;28;20500;-86
2021/07/06 04:14:05;;;;;;;3.38;1.55;;;;;;;10.63;90.35;90278.84;5001793;28;20026;-85
2021/07/06 04:16:32;;;;;;;2.40;1.60;;;;;;;10.60;89.51;90276.16;4968078;28;20197;-84
2021/07/06 04:19:03;;;;;;;3.03;1.33;;;;;;;10.73;90.24;90280.16;4983845;28;20513;-86
2021/07/06 04:21:37;;;;;;;3.70;2.30;;;;;;;10.74;90.52;90266.78;4967064;28;20030;-86
2021/07/06 04:24:18;;;;;;;1.98;1.48;;;;;;;10.86;90.34;90257.31;4967933;28;20034;-85
2021/07/06 04:26:56;;;;;;;2.15;1.65;;;;;;;10.88;90.34;90249.88;4999600;28;20029;-86
2021/07/06 04:29:30;;;;;;;3.10;1.50;;;;;;;10.97;90.21;90240.00;4983162;28;20026;-86
2021/07/06 04:32:07;;;;;;;1.73;1.45;;;;;;;11.09;90.33;90268.50;4983753;28;20026;-85
2021/07/06 04:34:43;;;;;;;3.10;1.30;;;;;;;11.26;89.57;90282.97;4982752;28;20117;-86
2021/07/06 04:37:26;;;;;;;2.28;1.60;;;;;;;11.27;90.77;90287.06;5000297;28;20030;-83
2021/07/06 04:39:56;;;;;;;4.32;1.42;;;;;;;11.29;91.03;90284.88;4998980;28;20046;-85
2021/07/06 04:42:34;;;;;;;4.60;1.40;;;;;;;11.29;90.93;90287.50;4984197;28;20022;-85
2021/07/06 04:45:15;;;;;;;8.13;1.60;;;;;;;11.28;90.82;90288.59;4983626;28;20046;-85
2021/07/06 04:47:51;;;;;;;3.10;1.55;;;;;;;11.52;90.72;90290.13;4984033;28;20040;-86
2021/07/06 04:50:31;;;;;;;2.70;1.38;;;;;;;11.56;90.68;90282.34;4983348;28;20381;-85
2021/07/06 04:53:10;;;;;;;1.83;1.30;;;;;;;11.51;89.56;90270.34;4983882;28;20030;-86
2021/07/06 04:55:48;;;;;;;1.83;1.20;;;;;;;11.51;89.18;90269.59;4984868;28;20022;-85
2021/07/06 04:58:28;;;;;;;3.28;1.20;;;;;;;11.65;87.87;90272.41;4982009;28;20026;-86
2021/07/06 05:01:03;;;;;;;5.78;1.50;;;;;;;11.46;88.29;90274.00;4983686;28;20026;-86
2021/07/06 05:03:44;;;;;;;2.42;1.30;;;;;;;11.58;88.96;90269.69;4964655;28;20034;-87
2021/07/06 05:06:31;;;;;;;1.80;1.33;;;;;;;11.61;89.35;90264.53;4950452;28;20022;-85
2021/07/06 05:09:07;;;;;;;2.00;1.50;;;;;;;11.76;89.59;90265.50;4962232;28;20045;-86
2021/07/06 05:11:51;;;;;;;2.47;1.30;;;;;;;11.81;89.50;90278.28;5000921;28;20030;-86
2021/07/06 05:14:20;;;;;;;1.85;1.42;;;;;;;11.89;89.73;90285.13;4985084;28;20028;-86
2021/07/06 05:17:01;;;;;;;2.10;1.38;;;;;;;11.96;89.58;90294.94;4984357;28;20094;-85
2021/07/06 05:19:37;;;;;;;2.13;1.60;;;;;;;12.13;88.84;90291.06;4968607;28;20040;-87
2021/07/06 05:22:06;;;;;;;3.47;1.70;;;;;;;12.22;88.58;90291.56;4983182;28;20470;-86
2021/07/06 05:24:42;;;;;;;4.47;1.48;;;;;;;12.34;89.63;90288.00;4977279;28;20451;-86
2021/07/06 05:27:16;;;;;;;2.70;1.80;;;;;;;12.43;89.25;90291.09;5001590;28;20488;-86
2021/07/06 05:29:51;;;;;;;6.00;2.00;;;;;;;12.53;89.16;90300.19;5000480;28;20030;-86
2021/07/06 05:32:25;;;;;;;2.50;1.73;;;;;;;12.69;87.95;90298.16;5000951;28;20038;-86
2021/07/06 05:35:10;;;;;;;2.88;2.05;;;;;;;12.91;87.79;90310.38;5001453;28;20026;-86
2021/07/06 05:37:36;;;;;;;;;;;;;;;13.07;86.89;90309.41;5001868;28;20389;-86
2021/07/06 05:40:07;;;;;;;4.18;2.25;;;;;;;13.28;87.25;90307.06;5002045;28;19914;-87
2021/07/06 05:42:48;;;;;;;3.63;2.40;;;;;;;13.56;86.08;90305.84;4983946;28;20032;-86
2021/07/06 05:45:29;;;;;;;2.75;1.40;;;;;;;13.78;85.79;90312.00;4984751;28;20034;-87
2021/07/06 05:48:08;;;;;;;3.15;1.60;;;;;;;13.97;85.94;90309.19;4983626;28;20056;-87
2021/07/06 05:50:46;;;;;;;2.50;1.40;;;;;;;14.12;85.50;90307.41;4982508;28;20030;-86
2021/07/06 05:53:29;;;;;;;4.70;1.30;;;;;;;14.15;85.25;90304.06;4999231;28;20097;-87
2021/07/06 05:56:05;;;;;;;3.40;1.33;;;;;;;14.27;85.24;90303.03;5001008;28;20031;-85
2021/07/06 05:58:48;;;;;;;1.90;1.35;;;;;;;14.32;83.63;90300.06;5000775;28;20076;-85
2021/07/06 06:01:19;;;;;;;1.80;1.10;;;;;;;14.41;83.60;90304.97;4996420;28;20096;-85
2021/07/06 06:03:49;;;;;;;2.22;1.20;;;;;;;14.55;82.82;90312.97;4976551;28;20034;-85
2021/07/06 06:06:21;;;;;;;2.97;1.30;;;;;;;14.57;83.77;90302.88;4996754;28;20098;-85
2021/07/06 06:08:46;;;;;;;1.48;1.20;;;;;;;14.68;83.50;90311.53;4998782;28;20022;-85
2021/07/06 06:11:12;;;;;;;2.35;1.40;;;;;;;14.78;82.13;90315.34;4987465;28;20386;-85
2021/07/06 06:13:38;;;;;;;1.98;1.10;;;;;;;14.90;81.45;90330.00;4977766;28;20077;-84
2021/07/06 06:16:13;;;;;;;2.05;1.10;;;;;;;14.96;81.10;90337.16;4963628;28;20054;-85
2021/07/06 06:18:55;;;;;;;1.50;1.10;;;;;;;14.97;81.76;90353.66;4997885;28;20030;-85
2021/07/06 06:21:37;;;;;;;1.98;1.15;;;;;;;15.02;85.15;90354.06;4977467;28;20037;-86
2021/07/06 06:24:10;;;;;;;1.70;1.25;;;;;;;15.13;85.96;90356.72;4961114;28;20031;-84
2021/07/06 06:26:47;;;;;;;3.38;1.20;;;;;;;15.24;85.45;90370.66;4975587;28;20057;-86
2021/07/06 06:29:29;;;;;;;2.72;1.52;;;;;;;15.54;85.72;90382.75;4960545;28;20034;-86
2021/07/06 06:32:12;;;;;;;3.70;2.28;;;;;;;15.74;85.52;90376.09;4993425;28;20026;-85
2021/07/06 06:34:47;;;;;;;2.93;1.40;;;;;;;15.98;84.81;90371.25;4978476;28;20038;-85
2021/07/06 06:37:20;;;;;;;2.05;1.52;;;;;;;16.02;83.61;90377.25;4966248;28;20268;-85
2021/07/06 06:39:57;;;;;;;2.05;1.13;;;;;;;16.11;78.81;90367.13;4942420;28;20663;-84
2021/07/06 06:42:23;;;;;;;2.85;1.02;;;;;;;16.15;77.08;90365.28;4962401;28;20455;-86
2021/07/06 06:44:49;;;;;;;2.83;1.02;;;;;;;16.18;77.22;90355.88;4971689;28;20034;-87
2021/07/06 06:47:20;;;;;;;3.70;1.20;;;;;;;16.18;80.53;90346.13;4980804;28;20472;-86
2021/07/06 06:49:46;;;;;;;1.83;1.08;;;;;;;16.18;81.42;90340.88;4996277;28;20068;-85
2021/07/06 06:52:13;;;;;;;3.47;1.23;;;;;;;16.06;83.96;90335.97;4992571;28;20050;-86
2021/07/06 06:54:45;;;;;;;3.60;1.48;;;;;;;16.02;83.93;90329.97;4977536;28;20081;-85
2021/07/06 06:57:16;;;;;;;2.25;1.20;;;;;;;15.95;82.57;90328.06;4976603;28;20022;-85
2021/07/06 06:59:43;;;;;;;1.50;1.13;;;;;;;15.98;80.29;90337.09;4978391;28;20054;-86
2021/07/06 07:02:19;;;;;;;1.85;1.20;;;;;;;16.06;79.72;90333.34;4980193;28;20027;-86
2021/07/06 07:04:51;;;;;;;2.55;1.10;;;;;;;16.13;79.03;90325.44;4997445;28;20026;-85
2021/07/06 07:07:18;;;;;;;1.25;0.93;;;;;;;16.26;78.82;90331.09;4980292;28;20030;-86
2021/07/06 07:09:45;;;;;;;2.22;1.00;;;;;;;16.42;77.70;90341.97;4979307;28;20037;-85
2021/07/06 07:12:11;;;;;;;2.22;1.30;;;;;;;16.70;79.76;90328.03;4960346;28;20026;-87
2021/07/06 07:14:37;;;;;;;1.27;1.00;;;;;;;16.99;80.24;90324.59;4977015;28;20029;-87
2021/07/06 07:17:04;;;;;;;1.70;1.13;;;;;;;17.10;80.98;90320.03;4983420;28;20122;-86
2021/07/06 07:19:29;;;;;;;3.15;1.15;;;;;;;17.21;79.00;90318.16;4945512;28;20026;-86
2021/07/06 07:21:56;;;;;;;2.10;1.27;;;;;;;17.44;80.39;90315.03;4960828;28;20027;-87
2021/07/06 07:24:21;;;;;;;2.08;1.40;;;;;;;17.74;74.55;90317.13;4962558;28;20088;-85
2021/07/06 07:26:48;;;;;;;2.00;1.30;;;;;;;18.02;73.49;90321.50;4980369;28;20242;-85
2021/07/06 07:29:14;;;;;;;1.83;1.30;;;;;;;18.04;70.25;90313.94;4998013;28;20037;-86
2021/07/06 07:31:40;;;;;;;5.78;1.80;;;;;;;18.15;68.48;90327.78;4981366;28;20039;-86
2021/07/06 07:34:10;;;;;;;3.90;1.50;;;;;;;18.33;68.72;90337.47;4980749;28;20408;-86
2021/07/06 07:36:37;;;;;;;1.90;1.50;;;;;;;18.51;69.16;90340.69;4979018;28;20037;-86
2021/07/06 07:39:02;;;;;;;3.67;1.40;;;;;;;18.60;66.89;90348.16;4978664;28;20031;-86
2021/07/06 07:41:28;;;;;;;3.58;1.48;;;;;;;18.56;65.67;90358.75;4978739;28;20030;-86
2021/07/06 07:43:54;;;;;;;2.33;1.25;;;;;;;18.58;64.38;90369.66;4962465;28;20027;-86
2021/07/06 07:46:23;;;;;;;2.42;1.30;;;;;;;18.46;64.36;90372.03;4981117;28;20072;-86
2021/07/06 07:48:48;;;;;;;3.42;1.38;;;;;;;18.45;63.51;90362.63;4978173;28;20109;-85
2021/07/06 07:51:14;;;;;;;2.47;1.45;;;;;;;18.46;64.31;90374.69;4979940;28;20022;-85
2021/07/06 07:53:40;;;;;;;1.90;1.48;;;;;;;18.60;64.38;90391.13;4980612;28;20030;-86
2021/07/06 07:56:09;;;;;;;2.65;1.52;;;;;;;18.73;63.30;90380.13;4994399;28;20160;-85
2021/07/06 07:58:39;;;;;;;2.58;1.42;;;;;;;18.92;62.48;90381.47;4980969;28;20029;-85
2021/07/06 08:01:07;;;;;;;2.50;1.70;;;;;;;18.84;62.79;90367.59;4965810;28;20026;-88
2021/07/06 08:03:35;;;;;;;3.30;1.30;;;;;;;18.92;63.73;90363.75;4982178;28;20092;-84
2021/07/06 08:06:06;;;;;;;3.13;1.67;;;;;;;19.06;63.26;90368.13;4998477;28;20084;-86
2021/07/06 08:08:37;;;;;;;2.50;1.80;;;;;;;19.21;63.35;90395.16;5000904;28;20022;-87
2021/07/06 08:11:06;;;;;;;3.22;1.67;;;;;;;19.29;62.41;90401.84;4990220;28;20031;-85
2021/07/06 08:13:35;;;;;;;3.85;2.00;;;;;;;19.37;63.52;90416.50;4990837;28;20023;-85
2021/07/06 08:16:03;;;;;;;2.55;1.80;;;;;;;19.35;62.62;90429.34;4990410;28;20026;-85
2021/07/06 08:18:32;;;;;;;4.22;1.88;;;;;;;19.54;63.40;90441.22;4950339;28;20044;-86
2021/07/06 08:20:58;;;;;;;5.22;1.83;;;;;;;19.48;63.50;90446.19;4948389;29;20035;-87
2021/07/06 08:23:25;;;;;;;2.50;1.83;;;;;;;19.29;63.78;90450.16;4949883;29;20081;-86
2021/07/06 08:25:53;;;;;;;2.72;1.73;;;;;;;19.07;64.43;90444.31;4941395;29;20031;-85
2021/07/06 08:28:27;;;;;;;2.67;1.85;;;;;;;18.81;65.20;90453.59;4959099;29;20074;-85
2021/07/06 08:30:56;;;;;;;2.30;1.67;;;;;;;18.75;64.96;90449.09;4959931;28;20038;-86
2021/07/06 08:33:25;;;;;;;3.03;1.70;;;;;;;18.52;65.69;90453.03;4961160;28;20023;-85
2021/07/06 08:35:51;;;;;;;3.05;1.88;;;;;;;18.56;66.32;90474.84;4960889;29;20031;-86
2021/07/06 08:38:21;;;;;;;3.00;1.85;;;;;;;18.68;65.46;90483.44;4976314;28;20031;-85
2021/07/06 08:40:49;;;;;;;2.63;1.90;;;;;;;18.53;66.23;90491.44;4955271;28;20030;-86
2021/07/06 08:43:18;;;;;;;5.13;2.30;;;;;;;18.55;66.41;90481.28;4956292;29;20034;-85
2021/07/06 08:45:47;;;;;;;3.60;1.98;;;;;;;18.43;66.75;90486.25;5030516;23;20043;-89
2021/07/06 08:48:18;;;;;;;3.58;2.30;;;;;;;18.51;66.28;90488.44;4975306;28;20057;-86
2021/07/06 08:50:49;;;;;;;3.33;2.40;;;;;;;18.30;68.20;90497.25;4991313;28;20027;-85
2021/07/06 08:53:18;;;;;;;2.53;2.13;;;;;;;18.22;68.40;90497.66;4992155;28;20026;-89
2021/07/06 08:55:46;;;;;;;4.15;2.35;;;;;;;18.35;67.31;90502.09;4983518;28;20069;-86
2021/07/06 08:58:17;;;;;;;3.42;2.30;;;;;;;18.13;68.02;90477.75;4991980;28;20403;-85
2021/07/06 09:00:47;;;;;;;4.03;2.70;;;;;;;18.07;69.06;90465.34;5007813;28;20109;-85
2021/07/06 09:03:15;;;;;;;5.00;2.80;;;;;;;17.82;70.05;90450.38;4992818;28;20036;-85
2021/07/06 09:05:48;;;;;;;3.95;2.35;;;;;;;17.85;70.28;90469.97;5008062;28;20500;-87
2021/07/06 09:08:18;;;;;;;3.33;2.58;;;;;;;17.81;70.69;90475.25;4993425;28;20154;-85
2021/07/06 09:10:45;;;;;;;5.07;2.70;;;;;;;17.75;71.45;90478.63;5003340;28;20026;-85
2021/07/06 09:13:25;;;;;;;4.80;2.42;;;;;;;17.55;73.18;90478.28;4991833;28;20496;-85
2021/07/06 09:15:55;;;;;;;4.30;2.42;;;;;;;17.44;72.98;90457.25;4975340;28;20030;-86
2021/07/06 09:18:22;;;;;;;2.80;2.50;;;;;;;17.41;73.05;90435.06;4991739;28;20023;-85
2021/07/06 09:21:06;;;;;;;4.60;2.58;;;;;;;17.41;73.80;90447.47;5007912;28;20101;-85
2021/07/06 09:23:43;;;;;;;2.92;2.40;;;;;;;17.54;73.23;90440.66;4975615;28;20026;-86
2021/07/06 09:26:11;;;;;;;3.10;2.67;;;;;;;17.60;73.41;90433.13;4978136;28;20461;-85
2021/07/06 09:28:41;;;;;;;3.85;2.20;;;;;;;17.62;72.85;90415.78;4971988;28;20054;-85
2021/07/06 09:31:24;;;;;;;3.20;2.35;;;;;;;17.58;71.38;90401.88;4971718;28;20039;-85
2021/07/06 09:33:52;;;;;;;2.97;2.35;;;;;;;17.70;73.28;90390.16;4983806;28;20035;-85
2021/07/06 09:36:30;;;;;;;3.25;2.33;;;;;;;17.66;71.93;90395.44;4971728;28;20039;-85
2021/07/06 09:39:05;;;;;;;2.65;2.22;;;;;;;17.55;73.18;90389.47;4971827;28;20050;-85
2021/07/06 09:41:33;;;;;;;3.10;2.10;;;;;;;17.67;73.48;90409.38;4972943;28;20109;-86
2021/07/06 09:44:29;;;;;;;15.85;10.05;;;;;;;17.63;71.45;90432.34;4955744;28;20041;-86
2021/07/06 09:47:02;;;;;;;3.35;2.10;;;;;;;17.91;70.79;90440.19;4971415;28;20480;-85
2021/07/06 09:49:40;;;;;;;3.58;2.22;;;;;;;18.11;71.52;90431.78;4972470;28;20039;-86
2021/07/06 09:52:19;;;;;;;4.68;2.20;;;;;;;18.15;69.70;90438.53;4973401;28;20027;-85
2021/07/06 09:54:48;;;;;;;5.82;2.00;;;;;;;18.43;69.89;90444.03;4979243;28;20026;-85
2021/07/06 09:57:36;;;;;;;2.75;1.90;;;;;;;18.11;69.23;90439.69;4987581;28;20022;-85
2021/07/06 10:00:08;;;;;;;2.88;2.00;;;;;;;18.21;68.56;90438.88;4986198;28;20019;-85
2021/07/06 10:02:40;;;;;;;2.70;1.80;;;;;;;18.08;68.48;90443.84;4987524;28;20035;-86
2021/07/06 10:05:09;;;;;;;4.10;2.08;;;;;;;17.97;69.39;90440.53;4971278;28;20034;-85
2021/07/06 10:07:38;;;;;;;2.63;1.85;;;;;;;17.90;69.31;90432.66;4971329;28;20022;-85
2021/07/06 10:10:13;;;;;;;3.55;1.80;;;;;;;17.85;69.28;90446.22;4989440;28;20027;-85
2021/07/06 10:12:42;;;;;;;2.97;1.92;;;;;;;17.69;70.71;90447.38;4990701;28;20500;-85
2021/07/06 10:15:10;;;;;;;1.92;1.70;;;;;;;17.60;70.92;90444.41;4974598;28;20038;-84
2021/07/06 10:17:38;;;;;;;2.55;1.90;;;;;;;17.69;71.10;90460.56;4970137;28;20027;-85
2021/07/06 10:20:07;;;;;;;2.65;1.98;;;;;;;17.74;71.86;90440.22;4954766;28;20157;-86
2021/07/06 10:22:33;;;;;;;2.55;1.85;;;;;;;17.73;72.39;90422.91;4955179;28;20030;-86
2021/07/06 10:25:08;;;;;;;3.58;2.08;;;;;;;17.78;72.12;90433.09;4974840;28;20507;-86
2021/07/06 10:27:37;;;;;;;2.95;2.20;;;;;;;17.72;73.11;90422.16;4990847;28;20026;-85
2021/07/06 10:30:19;;;;;;;4.63;2.17;;;;;;;17.67;73.12;90419.94;5006397;28;20019;-85
2021/07/06 10:32:55;;;;;;;2.95;1.92;;;;;;;17.69;72.65;90452.66;4992875;28;20623;-86
2021/07/06 10:35:40;;;;;;;3.53;2.25;;;;;;;17.69;70.37;90472.97;4975022;28;20026;-85
2021/07/06 10:38:32;;;;;;;2.70;1.90;;;;;;;17.59;71.70;90474.50;4990449;28;20038;-85
2021/07/06 10:41:16;;;;;;;2.42;1.95;;;;;;;17.53;73.20;90499.75;4991247;28;20053;-85
2021/07/06 10:43:51;;;;;;;4.67;2.30;;;;;;;17.57;70.59;90500.50;4990321;28;20496;-86
2021/07/06 10:46:21;;;;;;;4.72;2.40;;;;;;;17.64;71.54;90491.84;4989665;28;20036;-85
2021/07/06 10:49:01;;;;;;;4.28;2.47;;;;;;;17.42;72.58;90496.38;4992396;28;20066;-86
2021/07/06 10:51:38;;;;;;;2.97;2.13;;;;;;;17.43;72.66;90497.91;4994438;28;20397;-87
2021/07/06 10:54:18;;;;;;;4.22;2.20;;;;;;;17.35;72.22;90491.13;4972035;28;20026;-86
2021/07/06 10:56:52;;;;;;;3.80;2.00;;;;;;;17.47;71.66;90488.09;4988131;28;20062;-85
2021/07/06 10:59:34;;;;;;;4.10;2.10;;;;;;;17.30;71.68;90484.38;4974536;28;20097;-86
2021/07/06 11:02:03;;;;;;;4.35;2.38;;;;;;;17.24;71.78;90496.41;5002550;28;20034;-85
2021/07/06 11:04:46;;;;;;;2.70;2.33;;;;;;;17.14;73.19;90484.78;4994806;28;20037;-85
2021/07/06 11:07:33;;;;;;;3.95;2.47;;;;;;;17.03;74.48;90494.56;4995504;28;20026;-85
2021/07/06 11:10:01;;;;;;;2.75;2.20;;;;;;;16.79;76.55;90467.13;4994980;28;20030;-85
2021/07/06 11:12:32;;;;;;;3.70;2.33;;;;;;;16.73;75.98;90463.34;4994555;28;20499;-86
2021/07/06 11:15:02;;;;;;;3.90;2.10;;;;;;;16.75;76.23;90468.22;5009830;28;20030;-85
2021/07/06 11:17:44;;;;;;;3.58;2.33;;;;;;;16.80;76.53;90457.34;4962179;28;20041;-85
2021/07/06 11:20:13;;;;;;;5.47;2.45;;;;;;;16.78;77.99;90449.06;4959028;28;20671;-85
2021/07/06 11:22:55;;;;;;;5.90;2.20;;;;;;;17.06;76.84;90485.16;4977498;28;20030;-88
2021/07/06 11:25:26;;;;;;;2.75;1.95;;;;;;;17.04;76.66;90495.31;4988575;28;20041;-86
2021/07/06 11:28:18;;;;;;;3.03;2.20;;;;;;;17.15;76.56;90499.44;4977024;28;20084;-86
2021/07/06 11:30:56;;;;;;;3.55;1.75;;;;;;;16.94;76.28;90515.25;4978342;28;20026;-86
2021/07/06 11:33:32;;;;;;;2.53;2.10;;;;;;;16.96;76.79;90528.75;4994696;28;20042;-86
2021/07/06 11:36:06;;;;;;;26.10;16.05;;;;;;;16.78;74.34;90535.91;4994855;28;20046;-85
2021/07/06 11:38:49;;;;;;;10.20;4.53;;;;;;;16.76;75.06;90549.44;4976887;28;20029;-86
2021/07/06 11:41:22;;;;;;;4.07;2.17;;;;;;;16.76;75.74;90562.59;4994586;28;20034;-88
2021/07/06 11:43:49;;;;;;;3.15;1.90;;;;;;;16.88;77.43;90569.38;4993105;28;20022;-86
2021/07/06 11:46:22;;;;;;;1.95;1.40;;;;;;;16.94;75.18;90570.50;4992557;28;20075;-86
2021/07/06 11:48:51;;;;;;;1.83;1.55;;;;;;;16.76;75.82;90559.22;4993056;28;20034;-86
2021/07/06 11:51:20;;;;;;;1.77;1.48;;;;;;;16.73;75.74;90564.06;4966467;28;20033;-86
2021/07/06 11:53:59;;;;;;;1.75;1.40;;;;;;;16.72;75.13;90578.34;4941465;28;20161;-86
2021/07/06 11:56:27;;;;;;;1.70;1.40;;;;;;;16.58;76.00;90588.84;4942821;28;20442;-86
2021/07/06 11:58:58;;;;;;;1.77;1.38;;;;;;;16.57;75.72;90603.13;4957646;28;20109;-86
2021/07/06 12:01:27;;;;;;;1.65;1.40;;;;;;;16.44;76.39;90602.69;4957485;28;20519;-86
2021/07/06 12:03:56;;;;;;;1.77;1.30;;;;;;;16.50;77.67;90597.81;4973316;28;20106;-86
2021/07/06 12:06:28;;;;;;;2.03;1.40;;;;;;;16.60;76.31;90599.72;4957157;28;20031;-86
2021/07/06 12:08:54;;;;;;;1.20;0.80;;;;;;;16.67;75.52;90602.38;4972897;28;20022;-86